Schedule Details


Flight Number: CTN450
Departure: Franjo Tudman (LDZA) at 08:25
Arrival: Schiphol (EHAM) at 10:30
Route: PODET DCT RADLY DCT LAMSI UL604 RELBI UL602 RKN

Weather Information
LDZA 242200Z 01003KT 9999 FEW045 22/18 Q1021 NOSIG
EHAM 242155Z 02005KT CAVOK 24/19 Q1017 NOSIG
Schedule Frequency

Route Map